首页
METAR-TAF:

METAR-TAF

机场 :

Hancock, 密歇根州, 美国

纬度: 47-10-06N, 经度: 088-29-20W, 海拔: 334米

当前天气观测

该预报发布于38分钟前的01:53 UTC
风速3节,风向
温度 11°C
湿度 76%
气压 1019 hPa
能見度: 16.1公里
天空无云

METAR: KCMX 050153Z AUTO 35003KT 10SM CLR 11/07 A3008 RMK AO2 SLP190 T01060067

时间: 22:31 (02:31 UTC)

预报

该预报发布于2小时和56分钟前的23:35 UTC
预报有效从05日的 00点(UTC)到 05日的 24点(UTC)
风速7节,风向
能見度: 10公里
天空无云
从 05日的 0200点(UTC)
风速3节,风向多变
能見度: 10公里
散云层高于20000英尺

TAF: KCMX 042335Z 0500/0524 35007KT P6SM SKC FM050200 VRB03KT P6SM SCT200

超过4000个机场的气象观测和天气预报(METAR&TAF报告)。

可查询的气象台以黄色和红色小点在地图上表示。

将鼠标移到小点上方,可查看气象台名称。

然后点击查看天气观测和预报。

如需切换地图:点击带黑十字的绿色按钮放大地图;点击带横线的绿色按钮缩小地图;或者点击绿色箭头查看邻近地区的地图。


METAR-TAF: